createdAt,value
2018-07-13T00:02:08.508Z,27.27
2018-07-13T00:04:37.491Z,19.53
2018-07-13T00:07:06.587Z,25.50
2018-07-13T00:09:35.686Z,28.13
2018-07-13T00:12:04.757Z,30.20
2018-07-13T00:14:33.784Z,28.13
2018-07-13T00:17:02.769Z,27.77
2018-07-13T00:19:31.720Z,28.90
2018-07-13T00:22:00.688Z,17.30
2018-07-13T00:24:29.704Z,35.13
2018-07-13T00:26:59.780Z,19.30
2018-07-13T00:29:28.796Z,21.30
2018-07-13T00:31:57.748Z,20.90
2018-07-13T00:34:26.720Z,22.83
2018-07-13T00:36:55.682Z,21.53
2018-07-13T00:39:24.706Z,24.00
2018-07-13T00:41:53.733Z,14.30
2018-07-13T00:44:22.820Z,17.90
2018-07-13T00:46:51.905Z,31.43
2018-07-13T00:49:21.011Z,20.20
2018-07-13T00:51:50.058Z,22.87
2018-07-13T00:54:19.116Z,20.23
2018-07-13T00:56:48.161Z,21.40
2018-07-13T00:59:17.240Z,24.07
2018-07-13T01:01:46.273Z,25.70
2018-07-13T01:04:15.293Z,19.33
2018-07-13T01:06:44.317Z,18.37
2018-07-13T01:09:13.292Z,27.70
2018-07-13T01:11:42.301Z,18.40
2018-07-13T01:14:11.336Z,20.50
2018-07-13T01:16:40.308Z,22.63
2018-07-13T01:19:09.336Z,26.40
2018-07-13T01:21:38.296Z,21.30
2018-07-13T01:24:07.622Z,20.03
2018-07-13T01:26:36.649Z,22.30
2018-07-13T01:29:05.627Z,24.37
2018-07-13T01:31:34.664Z,28.63
2018-07-13T01:34:03.692Z,28.17
2018-07-13T01:36:32.711Z,24.97
2018-07-13T01:39:01.813Z,22.53
2018-07-13T01:41:30.896Z,25.50
2018-07-13T01:43:59.911Z,30.60
2018-07-13T01:46:28.974Z,25.73
2018-07-13T01:48:57.995Z,31.10
2018-07-13T01:51:26.960Z,26.60
2018-07-13T01:53:55.937Z,27.60
2018-07-13T01:56:25.013Z,32.10
2018-07-13T01:58:54.052Z,27.13
2018-07-13T02:01:23.062Z,27.13
2018-07-13T02:03:52.082Z,25.17
2018-07-13T02:06:21.185Z,31.73
2018-07-13T02:08:50.159Z,23.27
2018-07-13T02:11:19.130Z,22.70
2018-07-13T02:13:48.204Z,37.83
2018-07-13T02:16:17.350Z,28.13
2018-07-13T02:18:46.307Z,21.50
2018-07-13T02:21:15.258Z,24.17
2018-07-13T02:23:44.241Z,25.20
2018-07-13T02:26:13.280Z,24.37
2018-07-13T02:28:42.356Z,23.27
2018-07-13T02:31:11.369Z,22.93
2018-07-13T02:33:40.523Z,22.23
2018-07-13T02:36:09.521Z,23.00
2018-07-13T02:38:38.479Z,25.60
2018-07-13T02:41:07.573Z,21.23
2018-07-13T02:43:36.520Z,24.40
2018-07-13T02:46:05.557Z,26.57
2018-07-13T02:48:34.565Z,29.93
2018-07-13T02:51:03.528Z,31.27
2018-07-13T02:53:32.523Z,23.97
2018-07-13T02:56:01.591Z,49.87
2018-07-13T02:58:30.563Z,34.43
2018-07-13T03:00:59.569Z,33.67
2018-07-13T03:03:28.625Z,32.97
2018-07-13T03:05:57.581Z,27.20
2018-07-13T03:08:26.673Z,23.67
2018-07-13T03:10:55.628Z,26.80
2018-07-13T03:13:24.584Z,27.20
2018-07-13T03:15:53.664Z,30.63
2018-07-13T03:18:22.632Z,24.03
2018-07-13T03:20:51.666Z,32.53
2018-07-13T03:23:20.717Z,27.60
2018-07-13T03:25:49.814Z,29.80
2018-07-13T03:28:18.889Z,35.27
2018-07-13T03:30:47.901Z,25.17
2018-07-13T03:33:16.944Z,42.23
2018-07-13T03:35:45.907Z,27.60
2018-07-13T03:38:14.935Z,30.80
2018-07-13T03:40:43.932Z,25.70
2018-07-13T03:43:12.953Z,44.33
2018-07-13T03:45:41.916Z,34.07
2018-07-13T03:48:10.913Z,17.80
2018-07-13T03:50:39.953Z,24.90
2018-07-13T03:53:08.961Z,33.97
2018-07-13T03:55:37.929Z,22.80
2018-07-13T03:58:06.883Z,18.40
2018-07-13T04:00:36.069Z,23.20
2018-07-13T04:03:05.019Z,30.53
2018-07-13T04:05:34.889Z,33.30
2018-07-13T04:08:04.220Z,16.10
2018-07-13T04:10:33.303Z,42.37
2018-07-13T04:13:02.354Z,16.30
2018-07-13T04:15:31.324Z,17.03
2018-07-13T04:18:00.343Z,13.10
2018-07-13T04:20:29.488Z,13.27
2018-07-13T04:22:58.516Z,14.37
2018-07-13T04:25:27.540Z,11.03
2018-07-13T04:27:56.535Z,12.73
2018-07-13T04:30:25.528Z,11.97
2018-07-13T04:32:54.459Z,19.47
2018-07-13T04:35:23.458Z,18.90
2018-07-13T04:37:52.459Z,9.90
2018-07-13T04:40:21.459Z,14.40
2018-07-13T04:42:50.493Z,25.13
2018-07-13T04:45:19.574Z,9.97
2018-07-13T04:47:48.549Z,14.00
2018-07-13T04:50:17.599Z,29.17
2018-07-13T04:52:46.664Z,14.03
2018-07-13T04:55:15.652Z,13.73
2018-07-13T04:57:44.616Z,19.40
2018-07-13T05:00:13.622Z,16.10
2018-07-13T05:02:42.591Z,14.40
2018-07-13T05:05:11.664Z,14.50
2018-07-13T05:07:40.656Z,17.83
2018-07-13T05:10:09.921Z,19.57
2018-07-13T05:12:38.946Z,9.13
2018-07-13T05:15:08.808Z,33.07
2018-07-13T05:17:37.852Z,19.43
2018-07-13T05:20:06.853Z,14.17
2018-07-13T05:22:36.607Z,15.60
2018-07-13T05:25:06.341Z,12.40
2018-07-13T05:27:35.339Z,16.40
2018-07-13T05:30:04.725Z,14.40
2018-07-13T05:32:33.820Z,16.00
2018-07-13T05:35:02.812Z,16.37
2018-07-13T05:37:32.165Z,16.40
2018-07-13T05:40:02.509Z,13.30
2018-07-13T05:42:31.533Z,26.50
2018-07-13T05:45:00.525Z,14.97
2018-07-13T05:47:29.536Z,14.63
2018-07-13T05:49:58.516Z,16.05
2018-07-13T05:52:27.517Z,15.55
2018-07-13T05:54:56.753Z,13.30
2018-07-13T05:57:25.803Z,25.30
2018-07-13T05:59:54.850Z,17.82
2018-07-13T06:02:23.907Z,18.35
2018-07-13T06:04:52.914Z,21.68
2018-07-13T06:07:21.951Z,16.10
2018-07-13T06:09:50.985Z,11.65
2018-07-13T06:12:20.008Z,13.50
2018-07-13T06:14:49.009Z,24.63
2018-07-13T06:17:18.021Z,13.18
2018-07-13T06:19:47.055Z,11.65
2018-07-13T06:22:16.068Z,13.57
2018-07-13T06:24:45.102Z,14.10
2018-07-13T06:27:14.064Z,19.93
2018-07-13T06:29:43.043Z,12.93
2018-07-13T06:32:12.068Z,18.00
2018-07-13T06:34:41.040Z,21.13
2018-07-13T06:37:10.087Z,15.37
2018-07-13T06:39:39.092Z,24.53
2018-07-13T06:42:08.194Z,17.63
2018-07-13T06:44:37.210Z,16.03
2018-07-13T06:47:06.327Z,13.67
2018-07-13T06:49:35.292Z,17.30
2018-07-13T06:52:04.243Z,13.97
2018-07-13T06:54:33.244Z,16.97
2018-07-13T06:57:02.205Z,21.23
2018-07-13T06:59:31.187Z,13.33
2018-07-13T07:02:00.160Z,14.63
2018-07-13T07:04:37.837Z,20.40
2018-07-13T07:07:18.226Z,20.20
2018-07-13T07:09:50.900Z,14.60
2018-07-13T07:12:29.596Z,20.63
2018-07-13T07:14:58.609Z,16.03
2018-07-13T07:17:27.572Z,19.80
2018-07-13T07:19:56.539Z,15.60
2018-07-13T07:22:25.510Z,17.13
2018-07-13T07:24:54.468Z,17.30
2018-07-13T07:27:23.440Z,17.00
2018-07-13T07:29:52.392Z,20.13
2018-07-13T07:32:21.392Z,15.30
2018-07-13T07:34:50.359Z,16.50
2018-07-13T07:37:19.305Z,28.40
2018-07-13T07:39:48.297Z,19.20
2018-07-13T07:42:17.257Z,20.93
2018-07-13T07:44:46.336Z,13.43
2018-07-13T07:47:15.435Z,13.60
2018-07-13T07:49:44.475Z,13.20
2018-07-13T07:52:13.440Z,14.97
2018-07-13T07:54:42.776Z,13.83
2018-07-13T07:57:12.293Z,13.40
2018-07-13T07:59:41.270Z,16.50
2018-07-13T08:02:10.241Z,15.03
2018-07-13T08:04:39.211Z,17.70
2018-07-13T08:07:08.507Z,14.90
2018-07-13T08:09:37.812Z,12.83
2018-07-13T08:12:06.828Z,21.63
2018-07-13T08:14:35.914Z,20.07
2018-07-13T08:17:04.796Z,15.70
2018-07-13T08:19:33.778Z,16.10
2018-07-13T08:22:08.340Z,17.90
2018-07-13T08:24:37.368Z,21.53
2018-07-13T08:27:07.402Z,16.97
2018-07-13T08:29:40.572Z,15.53
2018-07-13T08:32:09.581Z,23.90
2018-07-13T08:34:38.624Z,25.13
2018-07-13T08:37:08.354Z,22.50
2018-07-13T08:39:37.401Z,20.50
2018-07-13T08:42:06.429Z,17.53
2018-07-13T08:44:35.494Z,17.67
2018-07-13T08:47:04.540Z,16.20
2018-07-13T08:49:34.349Z,22.73
2018-07-13T08:52:03.388Z,17.70
2018-07-13T08:54:33.412Z,14.67
2018-07-13T08:57:02.479Z,18.37
2018-07-13T08:59:31.514Z,18.90
2018-07-13T09:02:00.616Z,22.00
2018-07-13T09:04:29.812Z,21.67
2018-07-13T09:06:58.886Z,18.70
2018-07-13T09:09:27.944Z,22.60
2018-07-13T09:11:57.724Z,22.20
2018-07-13T09:14:26.779Z,21.43
2018-07-13T09:16:56.257Z,23.70
2018-07-13T09:19:25.269Z,25.47
2018-07-13T09:21:54.245Z,23.60
2018-07-13T09:24:23.271Z,21.70
2018-07-13T09:26:52.231Z,18.50
2018-07-13T09:29:21.188Z,21.63
2018-07-13T09:31:50.162Z,17.70
2018-07-13T09:34:19.125Z,19.47
2018-07-13T09:36:48.093Z,22.03
2018-07-13T09:39:17.061Z,16.03
2018-07-13T09:41:46.098Z,16.70
2018-07-13T09:44:15.058Z,16.77
2018-07-13T09:46:44.025Z,13.23
2018-07-13T09:49:13.013Z,11.07
2018-07-13T09:51:41.986Z,12.77
2018-07-13T09:54:11.104Z,24.73
2018-07-13T09:56:39.994Z,13.23
2018-07-13T09:59:09.001Z,11.70
2018-07-13T10:01:37.987Z,17.50
2018-07-13T10:04:06.985Z,12.70
2018-07-13T10:06:35.964Z,10.03
2018-07-13T10:09:05.988Z,13.70
2018-07-13T10:11:34.966Z,9.27
2018-07-13T10:14:03.968Z,10.03
2018-07-13T10:16:32.960Z,9.40
2018-07-13T10:19:01.986Z,10.00
2018-07-13T10:21:31.888Z,10.07
2018-07-13T10:24:00.860Z,9.53
2018-07-13T10:26:35.479Z,13.57
2018-07-13T10:29:07.119Z,13.00
2018-07-13T10:31:36.361Z,11.78
2018-07-13T10:34:07.426Z,8.83
2018-07-13T10:36:40.366Z,11.03
2018-07-13T10:39:10.446Z,11.40
2018-07-13T10:41:39.617Z,8.38
2018-07-13T10:44:08.591Z,8.23
2018-07-13T10:46:37.576Z,10.18
2018-07-13T10:49:06.545Z,14.55
2018-07-13T10:51:35.589Z,9.93
2018-07-13T10:54:04.557Z,12.55
2018-07-13T10:56:33.553Z,10.23
2018-07-13T10:59:02.567Z,10.78
2018-07-13T11:01:31.541Z,13.05
2018-07-13T11:04:00.528Z,12.13
2018-07-13T11:06:29.517Z,9.25
2018-07-13T11:08:58.473Z,10.23
2018-07-13T11:11:27.470Z,11.57
2018-07-13T11:13:56.575Z,10.68
2018-07-13T11:16:25.513Z,9.58
2018-07-13T11:18:54.462Z,15.58
2018-07-13T11:21:23.446Z,9.35
2018-07-13T11:23:52.430Z,7.85
2018-07-13T11:26:21.429Z,7.95
2018-07-13T11:28:50.428Z,10.60
2018-07-13T11:31:19.392Z,8.90
2018-07-13T11:33:48.456Z,9.18
2018-07-13T11:36:17.492Z,8.98
2018-07-13T11:38:46.548Z,15.83
2018-07-13T11:41:15.601Z,13.83
2018-07-13T11:43:44.566Z,19.12
2018-07-13T11:46:13.661Z,8.88
2018-07-13T11:48:42.685Z,10.43
2018-07-13T11:51:12.122Z,9.68
2018-07-13T11:53:41.329Z,8.75
2018-07-13T11:56:10.287Z,9.75
2018-07-13T11:58:39.309Z,11.73
2018-07-13T12:01:08.528Z,10.10
2018-07-13T12:03:37.555Z,9.48
2018-07-13T12:06:06.588Z,9.48
2018-07-13T12:08:35.547Z,9.78
2018-07-13T12:11:04.578Z,11.15
2018-07-13T12:13:33.523Z,9.58
2018-07-13T12:16:02.593Z,11.60
2018-07-13T12:18:31.623Z,10.55
2018-07-13T12:21:00.651Z,8.28
2018-07-13T12:23:29.633Z,10.20
2018-07-13T12:25:58.591Z,8.25
2018-07-13T12:28:27.625Z,12.20
2018-07-13T12:30:56.570Z,9.18
2018-07-13T12:33:25.612Z,8.88
2018-07-13T12:35:54.568Z,14.45
2018-07-13T12:38:23.641Z,9.48
2018-07-13T12:40:52.747Z,9.00
2018-07-13T12:43:21.769Z,15.05
2018-07-13T12:45:50.819Z,9.93
2018-07-13T12:48:19.823Z,13.68
2018-07-13T12:50:48.912Z,8.65
2018-07-13T12:53:17.876Z,9.28
2018-07-13T12:55:46.834Z,11.03
2018-07-13T12:58:15.794Z,8.00
2018-07-13T13:00:44.949Z,12.67
2018-07-13T13:03:13.992Z,10.57
2018-07-13T13:05:43.017Z,9.48
2018-07-13T13:08:11.997Z,8.25
2018-07-13T13:10:40.956Z,12.43
2018-07-13T13:13:09.991Z,9.85
2018-07-13T13:15:39.095Z,9.85
2018-07-13T13:18:08.117Z,18.55
2018-07-13T13:20:37.173Z,17.90
2018-07-13T13:23:06.197Z,15.58
2018-07-13T13:25:35.238Z,43.28
2018-07-13T13:28:04.199Z,8.45
2018-07-13T13:30:33.382Z,7.20
2018-07-13T13:33:02.565Z,9.68
2018-07-13T13:35:31.570Z,7.65
2018-07-13T13:38:00.518Z,9.78
2018-07-13T13:40:29.465Z,9.20
2018-07-13T13:42:58.609Z,7.87
2018-07-13T13:45:27.560Z,12.03
2018-07-13T13:47:56.653Z,10.28
2018-07-13T13:50:25.754Z,11.90
2018-07-13T13:52:54.709Z,22.40
2018-07-13T13:55:23.760Z,17.95
2018-07-13T13:57:52.777Z,10.10
2018-07-13T14:00:21.889Z,6.92
2018-07-13T14:02:50.871Z,6.47
2018-07-13T14:05:20.009Z,10.90
2018-07-13T14:07:48.940Z,6.00
2018-07-13T14:10:17.997Z,7.40
2018-07-13T14:12:47.102Z,9.13
2018-07-13T14:15:16.143Z,8.03
2018-07-13T14:17:45.286Z,10.23
2018-07-13T14:20:14.353Z,5.77
2018-07-13T14:22:43.485Z,14.90
2018-07-13T14:25:12.506Z,9.47
2018-07-13T14:27:41.475Z,15.40
2018-07-13T14:30:10.516Z,8.73
2018-07-13T14:32:39.479Z,13.43
2018-07-13T14:35:08.570Z,11.13
2018-07-13T14:37:37.570Z,13.27
2018-07-13T14:40:06.622Z,6.17
2018-07-13T14:42:35.565Z,6.33
2018-07-13T14:45:04.613Z,6.17
2018-07-13T14:47:33.589Z,14.17
2018-07-13T14:50:02.600Z,15.17
2018-07-13T14:52:31.646Z,8.80
2018-07-13T14:55:00.665Z,6.73
2018-07-13T14:57:29.750Z,9.10
2018-07-13T14:59:58.826Z,6.80
2018-07-13T15:02:27.889Z,8.77
2018-07-13T15:04:56.888Z,7.60
2018-07-13T15:07:25.910Z,10.23
2018-07-13T15:09:54.985Z,5.33
2018-07-13T15:12:23.938Z,5.70
2018-07-13T15:14:52.949Z,6.80
2018-07-13T15:17:22.043Z,4.80
2018-07-13T15:19:51.072Z,6.80
2018-07-13T15:22:20.057Z,4.87
2018-07-13T15:24:48.985Z,6.33
2018-07-13T15:27:18.057Z,11.93
2018-07-13T15:29:47.029Z,11.37
2018-07-13T15:32:16.057Z,14.40
2018-07-13T15:34:45.037Z,6.07
2018-07-13T15:37:14.114Z,13.07
2018-07-13T15:39:43.086Z,4.70
2018-07-13T15:42:12.089Z,7.40
2018-07-13T15:44:41.129Z,10.50
2018-07-13T15:47:10.089Z,6.90
2018-07-13T15:49:39.153Z,9.70
2018-07-13T15:52:08.204Z,16.80
2018-07-13T15:54:37.207Z,6.70
2018-07-13T15:57:06.191Z,7.73
2018-07-13T15:59:35.208Z,11.00
2018-07-13T16:02:04.217Z,11.80
2018-07-13T16:04:33.307Z,7.33
2018-07-13T16:07:02.733Z,10.50
2018-07-13T16:09:31.815Z,10.50
2018-07-13T16:12:01.009Z,14.73
2018-07-13T16:14:30.066Z,8.03
2018-07-13T16:16:59.029Z,11.77
2018-07-13T16:19:27.987Z,8.53
2018-07-13T16:21:57.011Z,11.20
2018-07-13T16:24:26.094Z,8.03
2018-07-13T16:26:55.085Z,9.53
2018-07-13T16:29:24.106Z,8.70
2018-07-13T16:31:53.308Z,6.80
2018-07-13T16:34:22.287Z,16.33
2018-07-13T16:36:51.441Z,11.20
2018-07-13T16:39:20.461Z,12.40
2018-07-13T16:41:49.536Z,9.30
2018-07-13T16:44:18.632Z,13.60
2018-07-13T16:46:47.591Z,9.60
2018-07-13T16:49:16.571Z,13.33
2018-07-13T16:51:45.737Z,13.00
2018-07-13T16:54:14.767Z,7.53
2018-07-13T16:56:44.881Z,13.03
2018-07-13T16:59:13.905Z,18.60
2018-07-13T17:01:42.853Z,8.67
2018-07-13T17:04:11.804Z,11.80
2018-07-13T17:06:40.840Z,13.13
2018-07-13T17:09:09.987Z,10.40
2018-07-13T17:11:39.121Z,11.60
2018-07-13T17:14:08.136Z,11.07
2018-07-13T17:16:37.240Z,9.90
2018-07-13T17:19:06.256Z,12.60
2018-07-13T17:21:35.245Z,7.83
2018-07-13T17:24:04.281Z,11.77
2018-07-13T17:26:33.246Z,13.43
2018-07-13T17:29:02.483Z,10.63
2018-07-13T17:31:31.546Z,10.50
2018-07-13T17:34:00.568Z,8.63
2018-07-13T17:36:29.577Z,19.40
2018-07-13T17:38:58.548Z,12.23
2018-07-13T17:41:27.629Z,16.93
2018-07-13T17:43:56.717Z,18.57
2018-07-13T17:46:25.868Z,18.93
2018-07-13T17:48:54.952Z,9.30
2018-07-13T17:51:24.061Z,13.13
2018-07-13T17:53:53.176Z,13.13
2018-07-13T17:56:22.205Z,21.80
2018-07-13T17:58:51.317Z,13.90
2018-07-13T18:01:20.495Z,16.40
2018-07-13T18:03:50.104Z,23.30
2018-07-13T18:06:19.113Z,19.30
2018-07-13T18:08:48.139Z,17.77
2018-07-13T18:11:17.168Z,19.93
2018-07-13T18:13:46.164Z,22.50
2018-07-13T18:16:15.204Z,18.60
2018-07-13T18:18:44.160Z,22.83
2018-07-13T18:21:13.253Z,22.77
2018-07-13T18:23:42.236Z,19.30
2018-07-13T18:26:11.325Z,16.70
2018-07-13T18:28:40.367Z,21.67
2018-07-13T18:31:09.465Z,17.70
2018-07-13T18:33:38.451Z,21.33
2018-07-13T18:36:07.493Z,16.90
2018-07-13T18:38:36.534Z,18.90
2018-07-13T18:41:05.717Z,19.53
2018-07-13T18:43:34.859Z,20.53
2018-07-13T18:46:04.265Z,16.40
2018-07-13T18:48:33.354Z,14.03
2018-07-13T18:51:02.571Z,15.67
2018-07-13T18:53:32.602Z,15.63
2018-07-13T18:56:02.476Z,19.53
2018-07-13T18:58:33.165Z,21.07
2018-07-13T19:01:02.541Z,17.37
2018-07-13T19:03:31.556Z,15.67
2018-07-13T19:06:00.556Z,20.80
2018-07-13T19:08:29.576Z,18.27
2018-07-13T19:10:58.677Z,19.00
2018-07-13T19:13:27.808Z,19.60
2018-07-13T19:15:56.901Z,20.30
2018-07-13T19:18:25.895Z,15.50
2018-07-13T19:20:54.990Z,17.67
2018-07-13T19:23:24.009Z,20.77
2018-07-13T19:25:53.113Z,16.70
2018-07-13T19:28:22.102Z,14.53
2018-07-13T19:30:51.168Z,25.13
2018-07-13T19:33:20.264Z,17.27
2018-07-13T19:35:49.347Z,17.27
2018-07-13T19:38:18.430Z,23.23
2018-07-13T19:40:47.417Z,24.20
2018-07-13T19:43:16.545Z,25.07
2018-07-13T19:45:45.557Z,18.00
2018-07-13T19:48:14.539Z,20.83
2018-07-13T19:50:43.511Z,17.20
2018-07-13T19:53:12.499Z,16.30
2018-07-13T19:55:41.649Z,18.63
2018-07-13T19:58:10.739Z,17.30
2018-07-13T20:00:39.877Z,17.60
2018-07-13T20:03:08.933Z,14.17
2018-07-13T20:05:37.998Z,15.17
2018-07-13T20:08:07.128Z,17.17
2018-07-13T20:10:36.094Z,16.90
2018-07-13T20:13:05.159Z,20.63
2018-07-13T20:15:34.252Z,13.70
2018-07-13T20:18:03.361Z,20.10
2018-07-13T20:20:32.322Z,18.93
2018-07-13T20:23:01.296Z,13.10
2018-07-13T20:25:30.263Z,17.90
2018-07-13T20:27:59.247Z,14.23
2018-07-13T20:30:28.286Z,18.93
2018-07-13T20:32:57.312Z,14.43
2018-07-13T20:35:26.439Z,16.27
2018-07-13T20:37:55.431Z,16.63
2018-07-13T20:40:24.449Z,20.03
2018-07-13T20:42:53.496Z,26.10
2018-07-13T20:45:22.488Z,16.80
2018-07-13T20:47:51.506Z,15.20
2018-07-13T20:50:20.484Z,25.60
2018-07-13T20:52:49.605Z,13.27
2018-07-13T20:55:18.646Z,18.33
2018-07-13T20:57:47.726Z,15.33
2018-07-13T21:00:16.858Z,10.90
2018-07-13T21:02:45.952Z,11.50
2018-07-13T21:05:14.932Z,12.80
2018-07-13T21:07:43.921Z,6.90
2018-07-13T21:10:13.070Z,22.10
2018-07-13T21:12:42.091Z,6.77
2018-07-13T21:15:11.133Z,9.10
2018-07-13T21:17:40.155Z,9.90
2018-07-13T21:20:09.289Z,15.90
2018-07-13T21:22:39.339Z,9.10
2018-07-13T21:25:08.299Z,14.57
2018-07-13T21:27:37.401Z,11.20
2018-07-13T21:30:06.449Z,9.23
2018-07-13T21:32:35.416Z,8.57
2018-07-13T21:35:04.462Z,8.73
2018-07-13T21:37:33.444Z,8.70
2018-07-13T21:40:02.502Z,6.37
2018-07-13T21:42:31.572Z,8.40
2018-07-13T21:45:00.698Z,9.13
2018-07-13T21:47:29.734Z,11.70
2018-07-13T21:49:58.768Z,6.80
2018-07-13T21:52:27.729Z,14.10
2018-07-13T21:54:56.776Z,9.90
2018-07-13T21:57:25.772Z,7.30
2018-07-13T21:59:54.785Z,7.33
2018-07-13T22:02:23.915Z,7.70
2018-07-13T22:04:52.975Z,8.70
2018-07-13T22:07:22.054Z,8.17
2018-07-13T22:09:51.044Z,11.77
2018-07-13T22:12:19.992Z,7.23
2018-07-13T22:14:49.029Z,8.20
2018-07-13T22:17:18.009Z,7.77
2018-07-13T22:19:47.033Z,10.20
2018-07-13T22:22:15.995Z,10.90
2018-07-13T22:24:44.981Z,15.80
2018-07-13T22:27:14.021Z,19.30
2018-07-13T22:29:43.006Z,14.33
2018-07-13T22:32:12.061Z,16.70
2018-07-13T22:34:41.085Z,17.00
2018-07-13T22:37:10.283Z,14.83
2018-07-13T22:39:39.333Z,17.83
2018-07-13T22:42:08.312Z,14.87
2018-07-13T22:44:37.308Z,13.30
2018-07-13T22:47:06.488Z,12.90
2018-07-13T22:49:35.537Z,12.00
2018-07-13T22:52:04.503Z,10.77
2018-07-13T22:54:33.480Z,8.50
2018-07-13T22:57:02.516Z,5.70
2018-07-13T22:59:31.500Z,6.87
2018-07-13T23:02:00.593Z,9.30
2018-07-13T23:04:29.570Z,6.37
2018-07-13T23:06:58.614Z,16.73
2018-07-13T23:09:27.589Z,14.23
2018-07-13T23:11:56.615Z,11.50
2018-07-13T23:14:25.658Z,12.93
2018-07-13T23:16:54.693Z,11.20
2018-07-13T23:19:23.724Z,11.70
2018-07-13T23:21:52.692Z,9.60
2018-07-13T23:24:36.360Z,13.50
2018-07-13T23:27:05.372Z,11.80
2018-07-13T23:29:34.445Z,11.73
2018-07-13T23:32:03.506Z,18.13
2018-07-13T23:34:32.464Z,8.67
2018-07-13T23:37:00.432Z,12.13
2018-07-13T23:39:29.458Z,15.37
2018-07-13T23:41:58.504Z,8.80
2018-07-13T23:44:27.480Z,13.13
2018-07-13T23:46:56.498Z,13.17
2018-07-13T23:49:25.596Z,10.33
2018-07-13T23:51:54.650Z,8.33
2018-07-13T23:54:23.715Z,11.13
2018-07-13T23:56:52.836Z,12.20
2018-07-13T23:59:21.859Z,8.30
